^^
Datos históricos de la estación: Murcia-Puente Tocinos
Diario Informe para Enero 8, 2019 Unidades:  Ingés    Métrico   Ambas
Diario Semanal Mensual Anual
  Máxima: Mínima: Promedio:
Temperatura: 87.3 °F 59.4 °F 73.8 °F
Punto de rocio: 60.4 °F 49.6 °F 55 °F
Humedad: 95% 29% 58%
Velocidad viento: 14mph 0mph 5.5mph
Racha viento: 26mph - -
Viento- - SO
Presión: 29.9 in 29.8 in -
Precipitación: 0 in    
 
 
Tabla de datos para Enero 8, 2019
Hora Temperatura Punto de rocio Presión Viento Velocidad viento Racha viento Humedad Intensidad lluvia(por hora) Nubes
00:04 64.2 °F 59.7 °F 29.9 in NNO 2.4 mph 5.2 mph 85.3% 0 in
00:09 64.2 °F 59.9 °F 29.9 in NO 2.5 mph 5 mph 86% 0 in
00:14 64.2 °F 59.9 °F 29.9 in North 2.9 mph 4 mph 86% 0 in
00:19 64.2 °F 59.9 °F 29.9 in NNE 2.5 mph 5 mph 86% 0 in
00:24 64 °F 60.1 °F 29.9 in NNE 1.8 mph 5 mph 86.8% 0 in
00:29 64 °F 60.1 °F 29.9 in NNE 1.8 mph 5 mph 87% 0 in
00:34 64 °F 60.1 °F 29.9 in NNE 1.8 mph   87% 0 in
00:39 63.9 °F 59.9 °F 29.9 in NNE 1.1 mph   87% 0 in
00:44 63.9 °F 59.9 °F 29.9 in Calm   4.6 mph 87% 0 in
00:49 63.9 °F 59.9 °F 29.9 in NNO 0.8 mph 5.2 mph 87% 0 in
00:54 63.9 °F 60.1 °F 29.9 in NNO 2 mph 5 mph 87.8% 0 in
00:59 63.9 °F 60.1 °F 29.9 in NNO 1.9 mph 4 mph 88% 0 in
01:04 63.9 °F 60.1 °F 29.9 in NNO 1.8 mph 4.7 mph 88% 0 in
01:09 63.7 °F 60.1 °F 29.9 in NO 1.8 mph 5 mph 88% 0 in
01:14 63.7 °F 60.1 °F 29.9 in NO 1.8 mph 3 mph 88% 0 in
01:19 63.7 °F 60.1 °F 29.9 in NNE 1.7 mph 3.5 mph 88% 0 in
01:24 63.7 °F 60.1 °F 29.9 in NE 1.4 mph 3 mph 88% 0 in
01:29 63.7 °F 60.3 °F 29.9 in North 1.4 mph 4.6 mph 88.7% 0 in
01:34 63.7 °F 60.4 °F 29.9 in NNO 1.4 mph 5 mph 89% 0 in
01:39 63.7 °F 60.4 °F 29.9 in North 1.4 mph 3 mph 89% 0 in
01:44 63.7 °F 60.4 °F 29.9 in North 1.4 mph   89% 0 in
01:49 63.7 °F 60.4 °F 29.9 in North 0.9 mph   89% 0 in
01:54 63.5 °F 60.3 °F 29.9 in Calm   2.4 mph 89% 0 in
01:59 63.7 °F 60.3 °F 29.9 in Calm   3.6 mph 89% 0 in
02:04 63.7 °F 60.4 °F 29.9 in Calm   4 mph 89% 0 in
02:09 63.7 °F 60.3 °F 29.9 in SE 0.5 mph 3 mph 88.4% 0 in
02:14 63.5 °F 59.9 °F 29.9 in SE 1.4 mph   88% 0 in
02:19 63.5 °F 59.9 °F 29.9 in SE 0.9 mph 3.1 mph 88% 0 in
02:24 63.5 °F 59.9 °F 29.9 in Calm   3.6 mph 88% 0 in
02:29 63.5 °F 59.9 °F 29.9 in Calm   4 mph 88% 0 in
02:34 63.5 °F 59.7 °F 29.9 in Calm   2 mph 87.5% 0 in
02:39 63.5 °F 59.5 °F 29.9 in Calm     87% 0 in
02:44 63.3 °F 59.4 °F 29.9 in Calm     87% 0 in
02:49 63.3 °F 59.4 °F 29.9 in Calm     87% 0 in
02:54 63.3 °F 59.4 °F 29.9 in Calm     87% 0 in
02:59 63.3 °F 59.4 °F 29.9 in Calm   3.1 mph 86.6% 0 in
03:04 63.3 °F 59.2 °F 29.9 in Calm   4.6 mph 86% 0 in
03:09 63.3 °F 59.2 °F 29.9 in Sur 0.7 mph 5.9 mph 86% 0 in
03:14 63.3 °F 59 °F 29.9 in Sur 2 mph 6 mph 85.7% 0 in
03:19 63.3 °F 58.6 °F 29.9 in Sur 2.7 mph 6.2 mph 85% 0 in
03:24 63.3 °F 58.6 °F 29.9 in SSO 4 mph 6 mph 85% 0 in
03:29 63.3 °F 58.8 °F 29.9 in SSO 3.9 mph 7.6 mph 85.2% 0 in
03:34 63.3 °F 59.2 °F 29.9 in SSO 3.6 mph 8.1 mph 86% 0 in
03:39 63.3 °F 59.2 °F 29.9 in SSO 4.2 mph 7 mph 86% 0 in
03:44 63.3 °F 59 °F 29.9 in SO 5.2 mph 7 mph 86% 0 in
03:49 63.1 °F 59 °F 29.9 in SSO 4.8 mph 7.6 mph 86% 0 in
03:54 63 °F 58.8 °F 29.9 in SSO 4.3 mph 8.1 mph 86% 0 in
03:59 63 °F 58.8 °F 29.9 in SO 4.3 mph 8 mph 86.6% 0 in
04:04 63 °F 59 °F 29.9 in SO 4.3 mph 7.4 mph 87% 0 in
04:09 63 °F 59 °F 29.9 in SSO 4 mph 7 mph 87% 0 in
04:14 62.8 °F 58.8 °F 29.9 in SSO 3.6 mph 8.5 mph 87% 0 in
04:19 62.8 °F 58.8 °F 29.9 in SSO 4 mph 9 mph 87% 0 in
04:24 62.6 °F 58.6 °F 29.9 in SSO 4.7 mph 9 mph 87% 0 in
04:29 62.4 °F 58.5 °F 29.9 in SSO 5 mph 9.2 mph 87% 0 in
04:34 62.4 °F 58.6 °F 29.9 in SO 5.4 mph 9.2 mph 87.5% 0 in
04:39 62.4 °F 58.8 °F 29.9 in SO 5.2 mph 8.1 mph 88% 0 in
04:44 62.4 °F 58.8 °F 29.9 in SO 4.7 mph 8.1 mph 88% 0 in
04:49 62.4 °F 58.8 °F 29.9 in SO 4.3 mph 8 mph 88% 0 in
04:54 62.4 °F 58.8 °F 29.9 in SSO 3.6 mph 7.4 mph 87.8% 0 in
04:59 62.4 °F 58.5 °F 29.9 in SSO 4.1 mph 7.4 mph 87% 0 in
05:04 62.2 °F 58.3 °F 29.9 in SSO 4.7 mph 7.4 mph 87% 0 in
05:09 62.2 °F 58.5 °F 29.9 in SSO 4.7 mph 8.1 mph 87.4% 0 in
05:14 62.1 °F 58.5 °F 29.9 in SSO 4.7 mph 8 mph 88% 0 in
05:19 62.1 °F 58.5 °F 29.9 in SSO 4.1 mph 6 mph 88% 0 in
05:24 62.1 °F 58.5 °F 29.9 in SSO 3.1 mph 6 mph 88% 0 in
05:29 62.1 °F 58.6 °F 29.9 in SO 3.3 mph 7.6 mph 88.5% 0 in
05:34 62.1 °F 58.8 °F 29.9 in SO 3.6 mph 8.1 mph 89% 0 in
05:39 62.1 °F 58.6 °F 29.9 in SO 3.9 mph 7 mph 89% 0 in
05:44 61.9 °F 58.6 °F 29.9 in SSO 4.3 mph 7 mph 89% 0 in
05:49 61.9 °F 58.5 °F 29.9 in SO 4 mph 6 mph 89% 0 in
05:54 61.7 °F 58.3 °F 29.9 in SO 3.6 mph 6.4 mph 89% 0 in
05:59 61.5 °F 58.3 °F 29.9 in SO 3.8 mph 8.5 mph 89.2% 0 in
06:04 61.5 °F 58.6 °F 29.9 in SO 4 mph 9 mph 90% 0 in
06:09 61.3 °F 58.3 °F 29.9 in SO 4.1 mph 9.2 mph 89.7% 0 in
06:14 61.3 °F 58.3 °F 29.9 in SO 4.3 mph 9 mph 90% 0 in
06:19 61.2 °F 58.1 °F 29.9 in SO 4.5 mph 9 mph 90% 0 in
06:24 61 °F 57.9 °F 29.9 in SO 4.7 mph 8.1 mph 90% 0 in
06:29 60.4 °F 57.7 °F 29.9 in SO 4.5 mph 8 mph 90.6% 0 in
06:34 60.3 °F 57.7 °F 29.9 in SSO 4.3 mph 10 mph 91.2% 0 in
06:39 60.1 °F 57.7 °F 29.9 in SSO 4.5 mph 10 mph 92% 0 in
06:44 59.9 °F 57.7 °F 29.9 in SO 4.7 mph 9.7 mph 92.8% 0 in
06:49 59.7 °F 57.7 °F 29.9 in SO 5.2 mph 10 mph 93.1% 0 in
06:54 59.7 °F 57.9 °F 29.9 in SSO 5.9 mph 9 mph 94% 0 in
06:59 59.7 °F 57.9 °F 29.9 in SSO 5.3 mph 10 mph 94% 0 in
07:04 59.5 °F 57.9 °F 29.9 in SO 4.7 mph 11.2 mph 94% 0 in
07:09 59.5 °F 57.7 °F 29.9 in SO 5.2 mph 12 mph 94% 0 in
07:14 59.5 °F 57.7 °F 29.9 in SSO 5.9 mph 12 mph 94% 0 in
07:19 59.4 °F 57.6 °F 29.9 in SSO 5.7 mph 10.4 mph 94% 0 in
07:24 59.4 °F 57.7 °F 29.9 in SSO 5.4 mph 10 mph 94.2% 0 in
07:29 59.4 °F 57.7 °F 29.9 in SSO 5.2 mph 9.2 mph 94.4% 0 in
07:34 59.4 °F 57.9 °F 29.9 in SSO 4.7 mph 9 mph 95% 0 in
07:39 59.5 °F 58.1 °F 29.9 in SSO 4.9 mph 11.5 mph 94.9% 0 in
07:44 59.5 °F 57.7 °F 29.9 in SSO 5.2 mph 12 mph 94% 0 in
07:49 59.5 °F 57.7 °F 29.9 in Sur 5.5 mph 9.2 mph 94% 0 in
07:54 59.7 °F 57.9 °F 29.9 in Sur 6.2 mph 10.2 mph 94% 0 in
07:59 59.7 °F 57.9 °F 29.9 in Sur 6.3 mph 10.4 mph 94% 0 in
08:04 59.7 °F 57.9 °F 29.9 in Sur 6.4 mph 10 mph 94% 0 in
08:09 59.7 °F 57.9 °F 29.9 in SSO 6.3 mph 9.2 mph 94% 0 in
08:14 59.9 °F 58.3 °F 29.9 in SSO 6.2 mph 9 mph 94% 0 in
08:19 60.3 °F 58.5 °F 29.9 in SO 5.7 mph 7 mph 94% 0 in
08:24 60.4 °F 58.5 °F 29.9 in OSO 4.7 mph 6.9 mph 93.3% 0 in
08:29 60.8 °F 58.6 °F 29.9 in OSO 4.1 mph 7 mph 92.8% 0 in
08:34 61 °F 58.5 °F 29.9 in Oeste 3.1 mph 6.2 mph 91.4% 0 in
08:39 61.3 °F 58.6 °F 29.9 in SO 3.1 mph 6 mph 90.8% 0 in
08:44 61.7 °F 58.6 °F 29.9 in SSE 3.1 mph 6.2 mph 89.4% 0 in
08:49 62.2 °F 58.8 °F 29.9 in SSE 3.4 mph 6.9 mph 88.5% 0 in
08:54 62.6 °F 58.8 °F 29.9 in Sur 4 mph 7 mph 87.2% 0 in
08:59 63 °F 58.6 °F 29.9 in SSO 4 mph 7 mph 86.1% 0 in
09:04 63.1 °F 58.6 °F 29.9 in SSO 4 mph 6.9 mph 84.9% 0 in
09:09 63.9 °F 58.8 °F 29.9 in Sur 4.1 mph 7 mph 83.6% 0 in
09:14 64.2 °F 58.8 °F 29.9 in SSO 4.3 mph 8.1 mph 82.4% 0 in
09:19 64.8 °F 59 °F 29.9 in SO 4.3 mph 8 mph 81.3% 0 in
09:24 65.3 °F 59 °F 29.9 in SSO 4.3 mph 7 mph 79.8% 0 in
09:29 65.8 °F 58.6 °F 29.9 in SSO 4 mph 7 mph 77.4% 0 in
09:34 66.4 °F 58.8 °F 29.9 in SSO 3.6 mph 7 mph 76.6% 0 in
09:39 66.7 °F 58.6 °F 29.9 in SSE 3.9 mph 9.2 mph 74.9% 0 in
09:44 67.1 °F 58.5 °F 29.9 in SSO 4.3 mph 9.2 mph 73.7% 0 in
09:49 67.5 °F 58.5 °F 29.9 in SO 4.3 mph 9 mph 72.9% 0 in
09:54 68 °F 58.3 °F 29.9 in OSO 4.3 mph 7 mph 71.1% 0 in
09:59 68.7 °F 57.9 °F 29.9 in Oeste 3.6 mph 5.9 mph 68.6% 0 in
10:04 69.3 °F 57.9 °F 29.9 in Sur 2.9 mph 6 mph 66.9% 0 in
10:09 70 °F 57.7 °F 29.9 in SO 2.7 mph 6 mph 65.1% 0 in
10:14 70.5 °F 57.4 °F 29.9 in Sur 2.4 mph 6.2 mph 62.9% 0 in
10:19 71.2 °F 56.1 °F 29.9 in SSO 2.6 mph 6.2 mph 59% 0 in
10:24 72 °F 55 °F 29.9 in SSO 2.9 mph 6.9 mph 55.4% 0 in
10:29 72.5 °F 55 °F 29.9 in SSO 3.4 mph 7 mph 54.1% 0 in
10:34 73 °F 54.5 °F 29.9 in SSO 4.3 mph 7.4 mph 52.2% 0 in
10:39 73.8 °F 54 °F 29.9 in Sur 4.2 mph 9.2 mph 50% 0 in
10:44 74.5 °F 53.6 °F 29.9 in SSE 4 mph 9 mph 48.2% 0 in
10:49 74.8 °F 53.6 °F 29.9 in SSO 4.5 mph 9.2 mph 47.6% 0 in
10:54 75.2 °F 53.6 °F 29.9 in SO 5.2 mph 9 mph 47.1% 0 in
10:59 75.7 °F 53.8 °F 29.9 in SSE 4.2 mph 6 mph 46.6% 0 in
11:04 76.6 °F 53.8 °F 29.9 in SSE 3.1 mph 6.9 mph 45.2% 0 in
11:09 77.2 °F 53.6 °F 29.9 in SSO 2.7 mph 7 mph 44.1% 0 in
11:14 77.7 °F 53.6 °F 29.9 in SSE 2 mph 7.4 mph 43.3% 0 in
11:19 78.3 °F 53.2 °F 29.9 in Sur 2.4 mph 8.7 mph 42.2% 0 in
11:24 78.3 °F 53.6 °F 29.9 in SO 3.1 mph 9.2 mph 42.7% 0 in
11:29 78.3 °F 54 °F 29.9 in OSO 3.4 mph 9 mph 43% 0 in
11:34 78.4 °F 52.9 °F 29.9 in Oeste 4 mph 9.2 mph 41.2% 0 in
11:39 78.6 °F 52.3 °F 29.9 in Oeste 4.1 mph 9.2 mph 40.1% 0 in
11:44 79 °F 52.9 °F 29.9 in OSO 4.3 mph 10.2 mph 40.6% 0 in
11:49 79.3 °F 52.7 °F 29.9 in Oeste 4.7 mph 10.4 mph 39.8% 0 in
11:54 79.9 °F 52.2 °F 29.9 in OSO 5.4 mph 13.8 mph 38.4% 0 in
11:59 80.1 °F 52.2 °F 29.9 in SO 6.4 mph 14 mph 38% 0 in
12:04 80.2 °F 52.3 °F 29.9 in OSO 7.4 mph 14 mph 38% 0 in
12:09 80.1 °F 52.3 °F 29.9 in SO 7.5 mph 14 mph 38.3% 0 in
12:14 80.2 °F 52.5 °F 29.9 in SSO 7.6 mph 14 mph 38.1% 0 in
12:19 81 °F 52.9 °F 29.9 in SO 7.5 mph 12 mph 37.8% 0 in
12:24 81.5 °F 52.7 °F 29.9 in Sur 7.4 mph 12.7 mph 37% 0 in
12:29 81.5 °F 51.8 °F 29.9 in OSO 7 mph 13 mph 35.8% 0 in
12:34 81.5 °F 52 °F 29.9 in OSO 6.4 mph 13.5 mph 35.9% 0 in
12:39 82 °F 50.5 °F 29.9 in OSO 6.8 mph 16.3 mph 33.6% 0 in
12:44 82.6 °F 50.2 °F 29.9 in OSO 7.6 mph 17.5 mph 32.5% 0 in
12:49 82.8 °F 50 °F 29.9 in SO 8 mph 17.3 mph 32.1% 0 in
12:54 83.1 °F 50.2 °F 29.8 in OSO 8.5 mph 17 mph 32% 0 in
12:59 83.1 °F 50.2 °F 29.8 in OSO 8 mph 15 mph 32% 0 in
13:04 82.9 °F 50 °F 29.8 in Oeste 7.4 mph 14 mph 32% 0 in
13:09 82.8 °F 50.5 °F 29.8 in Oeste 7.4 mph 14 mph 32.8% 0 in
13:14 82.8 °F 50.5 °F 29.8 in Oeste 7.4 mph 13.8 mph 32.8% 0 in
13:19 82.9 °F 50 °F 29.8 in OSO 7.5 mph 14.5 mph 32% 0 in
13:24 82.9 °F 50 °F 29.8 in Oeste 7.6 mph 15 mph 32% 0 in
13:29 82.9 °F 50 °F 29.8 in Oeste 7.6 mph 14 mph 32% 0 in
13:34 83.1 °F 50.2 °F 29.8 in Oeste 7.6 mph 14 mph 32% 0 in
13:39 83.3 °F 50.4 °F 29.8 in Oeste 7.3 mph 14 mph 32% 0 in
13:44 83.5 °F 50.9 °F 29.8 in Oeste 6.9 mph 13 mph 32.4% 0 in
13:49 83.3 °F 50.4 °F 29.8 in NO 6.7 mph 13 mph 32.1% 0 in
13:54 83.3 °F 50.2 °F 29.8 in NO 6.4 mph 13.8 mph 31.7% 0 in
13:59 83.7 °F 49.8 °F 29.8 in NO 6.3 mph 14 mph 31.1% 0 in
14:04 83.8 °F 49.6 °F 29.8 in OSO 6.2 mph 15 mph 30.5% 0 in
14:09 83.8 °F 50 °F 29.8 in ONO 6.9 mph 15 mph 31% 0 in
14:14 84 °F 50 °F 29.8 in ONO 8.1 mph 15 mph 31% 0 in
14:19 84.4 °F 50.4 °F 29.8 in NO 7.8 mph 15 mph 31% 0 in
14:24 84.4 °F 50.2 °F 29.8 in ONO 7.4 mph 15 mph 30.6% 0 in
14:29 84.2 °F 50.2 °F 29.8 in ONO 8.2 mph 14 mph 30.8% 0 in
14:34 84.4 °F 50.4 °F 29.8 in ONO 9.7 mph 14 mph 31% 0 in
14:39 84.6 °F 50.5 °F 29.8 in NO 8.9 mph 16.1 mph 31% 0 in
14:44 84.6 °F 50.2 °F 29.8 in ONO 7.4 mph 16 mph 30.7% 0 in
14:49 84.6 °F 50.5 °F 29.8 in ONO 7.4 mph 15 mph 31% 0 in
14:54 84.6 °F 50.9 °F 29.8 in NO 7.4 mph 14 mph 31.2% 0 in
14:59 85.1 °F 51.1 °F 29.8 in ONO 7.4 mph 12 mph 31% 0 in
15:04 85.5 °F 51.3 °F 29.8 in ONO 7.4 mph 12 mph 30.9% 0 in
15:09 85.5 °F 50.4 °F 29.8 in ONO 7 mph 12.7 mph 30% 0 in
15:14 85.5 °F 50.4 °F 29.8 in Oeste 6.2 mph 13 mph 30% 0 in
15:19 85.6 °F 50.5 °F 29.8 in Oeste 5.8 mph 10.7 mph 30% 0 in
15:24 85.8 °F 50.7 °F 29.8 in Oeste 5.2 mph 15 mph 30% 0 in
15:29 85.8 °F 50.7 °F 29.8 in Oeste 5.5 mph 15 mph 30% 0 in
15:34 86 °F 51.1 °F 29.8 in ONO 6.2 mph 13 mph 30.2% 0 in
15:39 86.2 °F 51.1 °F 29.8 in Oeste 6.2 mph 13.8 mph 30% 0 in
15:44 86.4 °F 51.4 °F 29.8 in ONO 6.2 mph 15.9 mph 30.3% 0 in
15:49 86 °F 51.4 °F 29.8 in Oeste 6.7 mph 16.1 mph 30.6% 0 in
15:54 86.4 °F 51.4 °F 29.8 in Oeste 7.6 mph 14 mph 30.1% 0 in
15:59 86.5 °F 50.4 °F 29.8 in SSO 6.8 mph 13 mph 29% 0 in
16:04 86.5 °F 51.3 °F 29.8 in SSE 5.9 mph 13 mph 29.7% 0 in
16:09 86.9 °F 51.6 °F 29.8 in North 5.2 mph 11 mph 29.7% 0 in
16:14 87.3 °F 51.3 °F 29.8 in Oeste 4 mph 11.5 mph 29.2% 0 in
16:19 87.3 °F 51.1 °F 29.8 in ONO 4.1 mph 12 mph 29.1% 0 in
16:24 86.9 °F 51.6 °F 29.8 in ONO 4.3 mph 12.3 mph 29.9% 0 in
16:29 86.5 °F 51.4 °F 29.8 in ONO 5 mph 13.5 mph 30% 0 in
16:34 86.7 °F 51.6 °F 29.8 in ONO 6.2 mph 14 mph 30% 0 in
16:39 86.7 °F 50.9 °F 29.8 in ONO 6.3 mph 12 mph 29.2% 0 in
16:44 86.9 °F 51.1 °F 29.8 in Oeste 6.4 mph 10 mph 29.4% 0 in
16:49 87.1 °F 51.6 °F 29.8 in Este 5.4 mph 7 mph 29.7% 0 in
16:54 87.1 °F 52.2 °F 29.8 in Sur 3.6 mph 9.2 mph 30.2% 0 in
16:59 87.3 °F 54 °F 29.8 in ENE 3.9 mph 9 mph 32.2% 0 in
17:04 87.3 °F 53.8 °F 29.8 in OSO 4.3 mph 8.1 mph 32% 0 in
17:09 87.3 °F 54 °F 29.8 in SSE 3.9 mph 8 mph 32.3% 0 in
17:14 87.3 °F 53.8 °F 29.8 in SE 3.1 mph 15.2 mph 31.9% 0 in
17:19 86.7 °F 53.4 °F 29.8 in SSE 4.5 mph 15 mph 32% 0 in
17:24 86.5 °F 54 °F 29.8 in SSE 6.9 mph 14 mph 32.8% 0 in
17:29 86.5 °F 54 °F 29.8 in Sur 6.9 mph 13 mph 33% 0 in
17:34 86.7 °F 54.1 °F 29.8 in Sur 6.9 mph 13 mph 32.9% 0 in
17:39 86.9 °F 54.1 °F 29.8 in SO 6.6 mph 12 mph 32.8% 0 in
17:44 87.1 °F 54.3 °F 29.8 in SSE 6.2 mph 10 mph 32.8% 0 in
17:49 87.1 °F 52.5 °F 29.8 in NO 5.8 mph 13.8 mph 30.7% 0 in
17:54 87.1 °F 52.3 °F 29.8 in ONO 5.2 mph 14 mph 30.6% 0 in
17:59 87.3 °F 52.2 °F 29.8 in NO 5.8 mph 13.8 mph 30.3% 0 in
18:04 87.3 °F 52.3 °F 29.8 in NO 6.4 mph 16.3 mph 30.4% 0 in
18:09 87.1 °F 52 °F 29.8 in NO 7.2 mph 17.5 mph 30% 0 in
18:14 86.7 °F 51.6 °F 29.8 in NO 8.7 mph 19.2 mph 30% 0 in
18:19 86.5 °F 51.6 °F 29.8 in ONO 9.8 mph 20.7 mph 30.3% 0 in
18:24 86.4 °F 52 °F 29.8 in ONO 11.8 mph 21 mph 30.8% 0 in
18:29 86.4 °F 52.3 °F 29.8 in NO 11.7 mph 18.5 mph 31.2% 0 in
18:34 86 °F 52.7 °F 29.8 in NO 11.4 mph 19 mph 32% 0 in
18:39 85.6 °F 52.3 °F 29.8 in ONO 11.3 mph 21.9 mph 32% 0 in
18:44 85.5 °F 52.9 °F 29.8 in NO 11.2 mph 22 mph 32.8% 0 in
18:49 85.3 °F 52.9 °F 29.8 in NO 11.3 mph 20.7 mph 33% 0 in
18:54 84.9 °F 53.2 °F 29.8 in NO 11.4 mph 21 mph 33.7% 0 in
18:59 85.1 °F 52.9 °F 29.8 in NO 10.7 mph 20.7 mph 33.1% 0 in
19:04 84.7 °F 52.9 °F 29.8 in NO 10 mph 21 mph 33.4% 0 in
19:09 84.6 °F 53.1 °F 29.8 in NO 10.4 mph 22.3 mph 33.9% 0 in
19:14 84.2 °F 52.7 °F 29.8 in ONO 11.2 mph 25.6 mph 34% 0 in
19:19 83.8 °F 52.5 °F 29.8 in ONO 12.2 mph 26 mph 34% 0 in
19:24 83.7 °F 52.7 °F 29.8 in NO 14 mph 22 mph 34.4% 0 in
19:29 83.7 °F 52.7 °F 29.8 in ONO 13.4 mph 21.9 mph 34.4% 0 in
19:34 83.7 °F 52.7 °F 29.8 in NO 12.3 mph 22 mph 34.4% 0 in
19:39 83.7 °F 52.2 °F 29.8 in NO 11.5 mph 21 mph 34% 0 in
19:44 83.3 °F 52.3 °F 29.8 in ONO 10 mph 18.4 mph 34.3% 0 in
19:49 83.1 °F 52.2 °F 29.8 in ONO 9.9 mph 18 mph 34.5% 0 in
19:54 82.9 °F 52.2 °F 29.8 in ONO 9.7 mph 16 mph 34.6% 0 in
19:59 82.8 °F 52.2 °F 29.8 in NO 8.9 mph 13.8 mph 34.9% 0 in
20:04 82.4 °F 52 °F 29.8 in NO 8.1 mph 16.8 mph 34.9% 0 in
20:09 82.2 °F 51.8 °F 29.8 in ONO 8.3 mph 17.8 mph 35% 0 in
20:14 81.9 °F 51.8 °F 29.8 in NO 8.7 mph 20.8 mph 35.3% 0 in
20:19 81.5 °F 52 °F 29.8 in ONO 9.8 mph 22.3 mph 36% 0 in
20:24 81.1 °F 51.8 °F 29.8 in ONO 11.8 mph 24.2 mph 36.3% 0 in
20:29 80.8 °F 52.2 °F 29.8 in ONO 12.4 mph 24 mph 37% 0 in
20:34 80.6 °F 52 °F 29.8 in ONO 13.5 mph 20.7 mph 37.1% 0 in
20:39 80.2 °F 52.3 °F 29.8 in NO 12.7 mph 21 mph 38% 0 in
20:44 80.1 °F 52.3 °F 29.8 in NO 11.4 mph 21 mph 38.2% 0 in
20:49 79.7 °F 52.5 °F 29.8 in NO 10.9 mph 19.7 mph 39% 0 in
20:54 79.3 °F 52.5 °F 29.8 in ONO 10.2 mph 20 mph 39.3% 0 in
20:59 79.2 °F 52.9 °F 29.8 in ONO 10.1 mph 23 mph 40% 0 in
21:04 79.2 °F 52.7 °F 29.8 in ONO 10 mph 23 mph 40% 0 in
21:09 79 °F 52.5 °F 29.8 in ONO 11.2 mph 23 mph 40% 0 in
21:14 79 °F 52.5 °F 29.8 in ONO 13.5 mph 22 mph 40% 0 in
21:19 79 °F 52.5 °F 29.8 in ONO 13.4 mph 24.6 mph 40% 0 in
21:24 78.8 °F 52.3 °F 29.8 in ONO 13 mph 25 mph 40% 0 in
21:29 78.8 °F 52.3 °F 29.8 in ONO 13.3 mph 25.6 mph 40% 0 in
21:34 78.8 °F 52.5 °F 29.8 in ONO 14 mph 26 mph 40.4% 0 in
21:39 78.6 °F 52.9 °F 29.8 in ONO 13.4 mph 21.3 mph 41% 0 in
21:44 78.4 °F 52.9 °F 29.8 in ONO 12.3 mph 21 mph 41% 0 in
21:49 78.4 °F 52.9 °F 29.8 in ONO 11.7 mph 20 mph 41% 0 in
21:54 78.3 °F 52.7 °F 29.8 in ONO 10.7 mph 16 mph 41% 0 in
21:59 78.3 °F 53.1 °F 29.8 in Oeste 9.3 mph 15 mph 41.6% 0 in
22:04 78.1 °F 53.1 °F 29.8 in Oeste 7.6 mph 14 mph 42% 0 in
22:09 77.9 °F 53.1 °F 29.8 in OSO 6.7 mph 9.7 mph 42% 0 in
22:14 77.7 °F 52.9 °F 29.8 in OSO 5.2 mph 10 mph 42% 0 in
22:19 77.7 °F 52.9 °F 29.8 in SO 4.8 mph 8.1 mph 42% 0 in
22:24 77.7 °F 52.7 °F 29.8 in SO 4 mph 7 mph 42% 0 in
22:29 77.7 °F 52.7 °F 29.8 in OSO 3.6 mph 5.8 mph 42% 0 in
22:34 77.7 °F 52.9 °F 29.8 in Sur 2.9 mph 6 mph 42% 0 in
22:39 77.9 °F 53.1 °F 29.8 in ESE 3 mph 8.5 mph 42% 0 in
22:44 78.1 °F 52.9 °F 29.8 in NO 3.1 mph 9 mph 41.8% 0 in
22:49 78.1 °F 53.1 °F 29.8 in NNO 3.3 mph 6 mph 42% 0 in
22:54 77.9 °F 52.9 °F 29.8 in NO 3.6 mph 6 mph 42% 0 in
22:59 77.7 °F 52.9 °F 29.8 in North 3 mph 5 mph 42% 0 in
23:04 77.5 °F 53.2 °F 29.8 in SSE 2.4 mph 8.1 mph 42.9% 0 in
23:09 77.5 °F 52.7 °F 29.8 in Sur 3 mph 8 mph 42.2% 0 in
23:14 77.5 °F 52.9 °F 29.8 in SO 4 mph 7 mph 42.4% 0 in
23:19 77.4 °F 52.7 °F 29.8 in OSO 3.9 mph 6.9 mph 42.3% 0 in
23:24 77.4 °F 53.1 °F 29.8 in SO 3.6 mph 7 mph 43% 0 in
23:29 77 °F 52.7 °F 29.8 in SO 3.6 mph 6.2 mph 43% 0 in
23:34 76.6 °F 53.1 °F 29.8 in SSO 3.6 mph 6 mph 43.8% 0 in
23:39 76.6 °F 53.1 °F 29.8 in OSO 3.4 mph 6 mph 44% 0 in
23:44 76.6 °F 53.1 °F 29.8 in OSO 3.1 mph 6.2 mph 44% 0 in
23:49 76.5 °F 52.9 °F 29.8 in OSO 3.1 mph 6.2 mph 44% 0 in
23:54 76.5 °F 53.2 °F 29.8 in Oeste 3.1 mph 6 mph 44.8% 0 in
23:59 76.1 °F 53.2 °F 29.8 in Oeste 3.5 mph 7.4 mph 45% 0 in
Murcia-Puente Tocinos, España
Compliments of Weather Underground - 3 mb

La estación de MeteoMurcia.com, publica sus datos en los siguientes proyectos:

Weather Underground PWS IMURCIAP2 Meteoclimatic www.awekas.at

W3Counter
Web Analytics